createdAt,value
2018-09-10T00:01:25.041Z,4.50
2018-09-10T00:05:27.174Z,3.73
2018-09-10T00:09:29.323Z,3.30
2018-09-10T00:13:31.503Z,3.70
2018-09-10T00:17:33.652Z,4.23
2018-09-10T00:21:35.807Z,3.90
2018-09-10T00:25:37.986Z,3.57
2018-09-10T00:29:40.230Z,3.20
2018-09-10T00:33:42.458Z,3.87
2018-09-10T00:37:44.611Z,4.23
2018-09-10T00:41:46.843Z,3.90
2018-09-10T00:45:49.019Z,3.70
2018-09-10T00:49:51.203Z,3.50
2018-09-10T00:53:53.442Z,5.20
2018-09-10T00:57:55.618Z,4.20
2018-09-10T01:01:57.802Z,5.17
2018-09-10T01:06:00.723Z,4.50
2018-09-10T01:10:03.001Z,4.57
2018-09-10T01:14:05.192Z,4.83
2018-09-10T01:18:07.358Z,4.60
2018-09-10T01:22:09.520Z,4.53
2018-09-10T01:26:11.655Z,4.67
2018-09-10T01:30:13.851Z,3.80
2018-09-10T01:34:22.103Z,4.23
2018-09-10T01:38:24.377Z,4.20
2018-09-10T01:42:26.841Z,4.40
2018-09-10T01:46:29.077Z,4.70
2018-09-10T01:50:31.289Z,4.00
2018-09-10T01:54:33.438Z,4.53
2018-09-10T01:58:35.592Z,4.40
2018-09-10T02:02:37.808Z,4.57
2018-09-10T02:06:39.970Z,4.40
2018-09-10T02:10:42.163Z,4.97
2018-09-10T02:14:44.481Z,5.50
2018-09-10T02:18:46.952Z,4.60
2018-09-10T02:22:49.108Z,3.90
2018-09-10T02:26:51.332Z,3.90
2018-09-10T02:30:53.510Z,4.30
2018-09-10T02:34:55.696Z,3.70
2018-09-10T02:38:57.920Z,4.50
2018-09-10T02:43:00.217Z,3.67
2018-09-10T02:47:02.395Z,4.20
2018-09-10T02:51:05.592Z,4.43
2018-09-10T02:55:08.480Z,3.97
2018-09-10T02:59:10.754Z,4.07
2018-09-10T03:03:12.919Z,3.70
2018-09-10T03:07:15.662Z,4.07
2018-09-10T03:11:17.870Z,4.20
2018-09-10T03:15:20.223Z,4.17
2018-09-10T03:19:22.382Z,4.30
2018-09-10T03:23:24.523Z,4.27
2018-09-10T03:27:26.686Z,4.43
2018-09-10T03:31:28.937Z,4.30
2018-09-10T03:35:31.491Z,4.60
2018-09-10T03:39:33.771Z,4.27
2018-09-10T03:43:36.062Z,4.47
2018-09-10T03:47:38.366Z,4.30
2018-09-10T03:51:40.610Z,5.50
2018-09-10T03:55:42.772Z,5.63
2018-09-10T03:59:45.023Z,4.90
2018-09-10T04:03:47.280Z,5.47
2018-09-10T04:07:49.538Z,5.17
2018-09-10T04:11:51.741Z,5.80
2018-09-10T04:15:53.982Z,5.60
2018-09-10T04:20:00.905Z,4.60
2018-09-10T04:24:03.499Z,5.00
2018-09-10T04:28:05.784Z,4.70
2018-09-10T04:32:08.041Z,5.93
2018-09-10T04:36:11.373Z,5.63
2018-09-10T04:40:13.421Z,5.00
2018-09-10T04:44:15.546Z,4.80
2018-09-10T04:48:17.720Z,5.17
2018-09-10T04:52:19.934Z,6.40
2018-09-10T04:56:22.097Z,5.07
2018-09-10T05:00:25.337Z,4.80
2018-09-10T05:04:27.636Z,4.57
2018-09-10T05:08:29.946Z,4.83
2018-09-10T05:12:32.135Z,5.37
2018-09-10T05:16:35.219Z,4.67
2018-09-10T05:20:37.375Z,7.00
2018-09-10T05:24:40.343Z,5.57
2018-09-10T05:28:43.554Z,5.13
2018-09-10T05:32:45.882Z,5.20
2018-09-10T05:36:48.766Z,5.33
2018-09-10T05:40:51.275Z,5.37
2018-09-10T05:44:53.532Z,5.07
2018-09-10T05:48:57.159Z,4.83
2018-09-10T05:53:01.115Z,5.93
2018-09-10T05:57:03.304Z,5.37
2018-09-10T06:01:05.524Z,6.63
2018-09-10T06:05:07.742Z,4.77
2018-09-10T06:09:09.887Z,4.63
2018-09-10T06:13:13.304Z,5.87
2018-09-10T06:17:15.523Z,5.17
2018-09-10T06:21:17.666Z,5.30
2018-09-10T06:25:21.851Z,4.40
2018-09-10T06:29:24.739Z,4.93
2018-09-10T06:33:26.917Z,6.00
2018-09-10T06:37:29.304Z,5.70
2018-09-10T06:41:31.459Z,5.50
2018-09-10T06:45:34.725Z,4.80
2018-09-10T06:49:36.860Z,3.53
2018-09-10T06:53:39.015Z,5.63
2018-09-10T06:57:41.176Z,5.07
2018-09-10T07:01:43.328Z,3.47
2018-09-10T07:05:46.837Z,4.27
2018-09-10T07:09:49.737Z,3.53
2018-09-10T07:13:51.934Z,3.60
2018-09-10T07:17:54.096Z,2.33
2018-09-10T07:21:56.265Z,2.93
2018-09-10T07:25:58.418Z,3.87
2018-09-10T07:30:00.691Z,3.90
2018-09-10T07:34:03.403Z,3.63
2018-09-10T07:38:05.857Z,3.13
2018-09-10T07:42:08.012Z,2.93
2018-09-10T07:46:10.205Z,2.80
2018-09-10T07:50:12.464Z,2.70
2018-09-10T07:54:14.643Z,2.50
2018-09-10T07:58:17.745Z,2.23
2018-09-10T08:02:20.099Z,2.10
2018-09-10T08:06:22.259Z,2.20
2018-09-10T08:10:24.439Z,2.40
2018-09-10T08:14:27.261Z,2.60
2018-09-10T08:18:29.523Z,2.00
2018-09-10T08:22:31.701Z,3.27
2018-09-10T08:26:33.872Z,1.93
2018-09-10T08:30:36.512Z,2.00
2018-09-10T08:34:38.696Z,2.13
2018-09-10T08:38:41.207Z,2.30
2018-09-10T08:42:43.620Z,2.30
2018-09-10T08:46:45.834Z,2.00
2018-09-10T08:50:48.044Z,1.80
2018-09-10T08:54:50.437Z,2.43
2018-09-10T08:58:52.396Z,2.00
2018-09-10T09:02:55.377Z,1.87
2018-09-10T09:06:58.412Z,2.10
2018-09-10T09:11:00.670Z,2.23
2018-09-10T09:15:03.804Z,2.70
2018-09-10T09:19:05.987Z,3.60
2018-09-10T09:23:08.501Z,3.83
2018-09-10T09:27:10.699Z,4.90
2018-09-10T09:31:12.853Z,4.40
2018-09-10T09:35:15.410Z,4.80
2018-09-10T09:39:23.455Z,4.90
2018-09-10T09:44:28.987Z,4.77
2018-09-10T09:48:31.126Z,5.93
2018-09-10T09:52:33.394Z,6.07
2018-09-10T09:56:35.675Z,5.47
2018-09-10T10:00:44.488Z,5.80
2018-09-10T10:04:47.771Z,5.70
2018-09-10T10:08:50.138Z,5.33
2018-09-10T10:12:52.389Z,7.50
2018-09-10T10:16:54.633Z,5.60
2018-09-10T10:20:56.864Z,6.27
2018-09-10T10:24:59.103Z,5.67
2018-09-10T10:29:01.300Z,4.97
2018-09-10T10:33:03.557Z,5.13
2018-09-10T10:37:07.891Z,4.47
2018-09-10T10:41:11.037Z,4.83
2018-09-10T10:45:15.649Z,5.20
2018-09-10T10:49:19.706Z,4.77
2018-09-10T10:53:22.785Z,3.37
2018-09-10T10:57:25.006Z,3.80
2018-09-10T11:01:27.304Z,3.47
2018-09-10T11:05:29.493Z,3.30
2018-09-10T11:09:31.791Z,3.97
2018-09-10T11:13:34.043Z,2.90
2018-09-10T11:17:36.305Z,2.57
2018-09-10T11:21:38.508Z,2.33
2018-09-10T11:25:41.386Z,1.17
2018-09-10T11:29:44.486Z,1.20
2018-09-10T11:33:46.904Z,1.40
2018-09-10T11:37:49.686Z,2.20
2018-09-10T11:41:51.945Z,1.80
2018-09-10T11:45:54.576Z,1.60
2018-09-10T11:49:57.929Z,2.13
2018-09-10T11:54:00.227Z,1.37
2018-09-10T11:58:02.490Z,2.07
2018-09-10T12:02:07.656Z,1.67
2018-09-10T12:06:09.850Z,1.70
2018-09-10T12:10:12.033Z,1.80
2018-09-10T12:14:14.251Z,2.73
2018-09-10T12:18:16.408Z,2.10
2018-09-10T12:22:18.606Z,2.13
2018-09-10T12:26:20.816Z,2.70
2018-09-10T12:30:23.187Z,2.10
2018-09-10T12:34:25.403Z,1.90
2018-09-10T12:38:27.807Z,2.40
2018-09-10T12:42:30.029Z,2.10
2018-09-10T12:46:32.463Z,1.80
2018-09-10T12:50:34.831Z,2.17
2018-09-10T12:54:37.191Z,2.40
2018-09-10T12:58:39.557Z,2.20
2018-09-10T13:02:41.775Z,2.30
2018-09-10T13:06:43.943Z,2.20
2018-09-10T13:10:46.808Z,1.90
2018-09-10T13:14:48.890Z,1.70
2018-09-10T13:18:51.173Z,1.60
2018-09-10T13:22:53.767Z,2.00
2018-09-10T13:26:56.289Z,1.83
2018-09-10T13:30:59.412Z,1.87
2018-09-10T13:35:01.656Z,1.63
2018-09-10T13:39:05.301Z,2.47
2018-09-10T13:43:08.024Z,2.20
2018-09-10T13:47:10.182Z,2.37
2018-09-10T13:51:12.372Z,3.07
2018-09-10T13:55:14.556Z,2.17
2018-09-10T13:59:17.309Z,2.77
2018-09-10T14:03:19.511Z,2.60
2018-09-10T14:07:22.427Z,2.57
2018-09-10T14:11:24.781Z,2.37
2018-09-10T14:15:26.948Z,2.57
2018-09-10T14:19:29.165Z,4.00
2018-09-10T14:23:31.383Z,2.93
2018-09-10T14:27:33.612Z,2.70
2018-09-10T14:31:35.864Z,2.73
2018-09-10T14:35:38.100Z,2.27
2018-09-10T14:39:40.431Z,2.10
2018-09-10T14:43:42.628Z,2.40
2018-09-10T14:47:44.835Z,2.70
2018-09-10T14:51:47.100Z,2.97
2018-09-10T14:55:50.417Z,2.37
2018-09-10T14:59:52.661Z,2.73
2018-09-10T15:03:55.049Z,2.73
2018-09-10T15:07:57.390Z,2.80
2018-09-10T15:11:59.685Z,3.40
2018-09-10T15:16:01.952Z,2.97
2018-09-10T15:20:04.328Z,2.27
2018-09-10T15:24:06.542Z,2.47
2018-09-10T15:28:10.532Z,3.07
2018-09-10T15:32:12.713Z,2.80
2018-09-10T15:36:14.887Z,2.63
2018-09-10T15:40:17.096Z,3.63
2018-09-10T15:44:19.277Z,3.73
2018-09-10T15:48:21.482Z,3.07
2018-09-10T15:52:23.706Z,3.37
2018-09-10T15:56:25.985Z,2.97
2018-09-10T16:00:28.196Z,2.83
2018-09-10T16:04:30.359Z,2.70
2018-09-10T16:08:33.145Z,2.87
2018-09-10T16:12:35.343Z,2.60
2018-09-10T16:16:38.480Z,3.20
2018-09-10T16:20:40.745Z,3.67
2018-09-10T16:30:54.103Z,3.47
2018-09-10T16:34:56.309Z,2.60
2018-09-10T16:38:58.490Z,2.63
2018-09-10T16:43:00.712Z,2.70
2018-09-10T16:47:02.904Z,4.37
2018-09-10T16:51:05.303Z,2.80
2018-09-10T16:55:07.747Z,3.30
2018-09-10T16:59:10.826Z,3.20
2018-09-10T17:03:13.157Z,2.97
2018-09-10T17:07:15.358Z,3.17
2018-09-10T17:11:17.673Z,3.67
2018-09-10T17:15:19.897Z,2.97
2018-09-10T17:19:22.104Z,3.20
2018-09-10T17:23:24.339Z,3.17
2018-09-10T17:27:26.543Z,3.53
2018-09-10T17:31:28.761Z,3.47
2018-09-10T17:35:31.059Z,3.67
2018-09-10T17:39:33.323Z,3.53
2018-09-10T17:43:35.576Z,3.93
2018-09-10T17:47:37.859Z,3.07
2018-09-10T17:51:40.101Z,3.73
2018-09-10T17:55:42.345Z,3.20
2018-09-10T17:59:44.640Z,3.27
2018-09-10T18:03:46.928Z,3.47
2018-09-10T18:07:49.171Z,3.40
2018-09-10T18:11:51.370Z,3.27
2018-09-10T18:15:54.044Z,4.15
2018-09-10T18:19:56.391Z,3.50
2018-09-10T18:23:59.281Z,2.87
2018-09-10T18:28:01.603Z,2.90
2018-09-10T18:32:03.857Z,3.47
2018-09-10T18:36:06.120Z,3.87
2018-09-10T18:40:08.877Z,3.30
2018-09-10T18:44:11.077Z,3.23
2018-09-10T18:48:13.336Z,3.27
2018-09-10T18:52:15.638Z,3.70
2018-09-10T18:56:17.938Z,3.60
2018-09-10T19:00:20.327Z,3.87
2018-09-10T19:04:22.679Z,3.30
2018-09-10T19:08:24.980Z,3.80
2018-09-10T19:12:27.200Z,3.90
2018-09-10T19:16:29.409Z,3.87
2018-09-10T19:20:31.989Z,3.63
2018-09-10T19:24:34.309Z,4.27
2018-09-10T19:28:36.568Z,4.27
2018-09-10T19:32:38.823Z,4.10
2018-09-10T19:36:41.128Z,4.77
2018-09-10T19:40:43.343Z,4.73
2018-09-10T19:44:45.590Z,5.40
2018-09-10T19:48:47.914Z,4.30
2018-09-10T19:52:50.630Z,4.60
2018-09-10T19:56:53.226Z,7.53
2018-09-10T20:00:55.444Z,6.47
2018-09-10T20:04:57.731Z,4.60
2018-09-10T20:08:59.931Z,4.53
2018-09-10T20:13:02.112Z,4.53
2018-09-10T20:17:04.783Z,4.87
2018-09-10T20:21:06.968Z,7.60
2018-09-10T20:25:09.163Z,6.63
2018-09-10T20:29:11.381Z,5.33
2018-09-10T20:33:13.623Z,5.57
2018-09-10T20:37:15.824Z,5.70
2018-09-10T20:41:18.182Z,5.17
2018-09-10T20:45:20.360Z,6.03
2018-09-10T20:49:22.527Z,5.97
2018-09-10T20:53:25.035Z,4.80
2018-09-10T20:57:27.328Z,5.00
2018-09-10T21:01:29.513Z,4.27
2018-09-10T21:05:31.753Z,4.27
2018-09-10T21:09:33.947Z,5.03
2018-09-10T21:13:36.094Z,4.97
2018-09-10T21:17:38.357Z,4.60
2018-09-10T21:21:40.635Z,5.30
2018-09-10T21:25:43.746Z,5.03
2018-09-10T21:29:46.079Z,6.03
2018-09-10T21:33:48.355Z,5.60
2018-09-10T21:37:50.543Z,5.47
2018-09-10T21:41:52.755Z,4.93
2018-09-10T21:45:54.909Z,7.43
2018-09-10T21:49:57.084Z,10.27
2018-09-10T21:53:59.325Z,6.00
2018-09-10T21:58:01.466Z,6.63
2018-09-10T22:02:03.656Z,6.77
2018-09-10T22:06:05.883Z,5.23
2018-09-10T22:10:08.110Z,6.90
2018-09-10T22:14:10.322Z,5.50
2018-09-10T22:18:13.234Z,6.00
2018-09-10T22:22:15.419Z,5.83
2018-09-10T22:26:17.608Z,6.00
2018-09-10T22:30:19.747Z,4.87
2018-09-10T22:34:21.990Z,5.50
2018-09-10T22:38:24.121Z,7.33
2018-09-10T22:42:26.777Z,5.77
2018-09-10T22:46:28.963Z,5.93
2018-09-10T22:50:31.159Z,6.87
2018-09-10T22:54:33.393Z,5.87
2018-09-10T22:58:35.550Z,5.77
2018-09-10T23:02:37.950Z,6.43
2018-09-10T23:06:40.119Z,6.23
2018-09-10T23:10:42.257Z,6.93
2018-09-10T23:14:44.447Z,6.97
2018-09-10T23:18:46.594Z,6.47
2018-09-10T23:22:48.795Z,7.33
2018-09-10T23:26:50.976Z,7.17
2018-09-10T23:30:53.154Z,7.20
2018-09-10T23:34:55.304Z,6.90
2018-09-10T23:38:57.514Z,7.10
2018-09-10T23:42:59.851Z,7.00
2018-09-10T23:47:02.056Z,7.00
2018-09-10T23:51:04.187Z,6.37
2018-09-10T23:55:06.414Z,8.57
2018-09-10T23:59:08.568Z,6.17
